createdAt,value
2022-11-09T00:01:30.562Z,57.78
2022-11-09T00:04:04.448Z,57.72
2022-11-09T00:06:37.352Z,57.77
2022-11-09T00:09:10.870Z,57.74
2022-11-09T00:11:43.141Z,57.69
2022-11-09T00:14:18.754Z,57.82
2022-11-09T00:16:51.022Z,57.82
2022-11-09T00:19:23.450Z,57.97
2022-11-09T00:21:55.729Z,57.87
2022-11-09T00:24:28.042Z,58.00
2022-11-09T00:27:00.355Z,57.94
2022-11-09T00:29:32.739Z,57.96
2022-11-09T00:32:05.151Z,58.03
2022-11-09T00:34:37.493Z,58.03
2022-11-09T00:37:09.782Z,57.96
2022-11-09T00:39:42.151Z,58.16
2022-11-09T00:42:14.536Z,58.06
2022-11-09T00:44:46.895Z,58.07
2022-11-09T00:47:19.307Z,58.03
2022-11-09T00:49:51.754Z,58.08
2022-11-09T00:52:24.127Z,58.25
2022-11-09T00:54:56.539Z,58.21
2022-11-09T00:57:28.865Z,58.20
2022-11-09T01:00:01.140Z,58.20
2022-11-09T01:02:33.418Z,58.15
2022-11-09T01:05:06.411Z,58.22
2022-11-09T01:07:39.532Z,58.29
2022-11-09T01:10:12.326Z,58.30
2022-11-09T01:12:44.682Z,58.39
2022-11-09T01:15:17.019Z,58.55
2022-11-09T01:17:49.385Z,58.53
2022-11-09T01:20:22.323Z,58.72
2022-11-09T01:22:55.623Z,58.62
2022-11-09T01:25:27.901Z,58.96
2022-11-09T01:28:02.153Z,59.02
2022-11-09T01:30:37.047Z,59.11
2022-11-09T01:33:11.643Z,59.04
2022-11-09T01:35:43.991Z,59.10
2022-11-09T01:38:16.311Z,59.18
2022-11-09T01:40:48.644Z,59.14
2022-11-09T01:43:23.949Z,59.28
2022-11-09T01:46:01.407Z,59.30
2022-11-09T01:48:39.479Z,59.19
2022-11-09T01:51:15.775Z,59.19
2022-11-09T01:53:52.734Z,59.12
2022-11-09T01:56:25.316Z,59.28
2022-11-09T01:59:00.579Z,59.40
2022-11-09T02:01:34.399Z,59.25
2022-11-09T02:04:11.471Z,59.17
2022-11-09T02:06:44.433Z,59.27
2022-11-09T02:09:22.351Z,59.34
2022-11-09T02:11:55.022Z,59.31
2022-11-09T02:14:29.954Z,59.33
2022-11-09T02:17:02.715Z,59.38
2022-11-09T02:19:35.062Z,59.43
2022-11-09T02:22:10.453Z,59.43
2022-11-09T02:24:42.781Z,59.39
2022-11-09T02:27:15.244Z,59.47
2022-11-09T02:29:49.004Z,59.51
2022-11-09T02:32:24.336Z,59.50
2022-11-09T02:34:56.626Z,59.59
2022-11-09T02:37:31.448Z,59.57
2022-11-09T02:40:06.983Z,59.64
2022-11-09T02:42:39.888Z,59.58
2022-11-09T02:45:13.565Z,59.58
2022-11-09T02:47:45.852Z,59.67
2022-11-09T02:50:18.537Z,59.65
2022-11-09T02:52:51.183Z,59.64
2022-11-09T02:55:23.534Z,59.49
2022-11-09T02:57:55.843Z,59.53
2022-11-09T03:00:28.289Z,59.67
2022-11-09T03:03:00.759Z,59.66
2022-11-09T03:05:34.963Z,59.63
2022-11-09T03:08:07.602Z,59.64
2022-11-09T03:10:39.963Z,59.50
2022-11-09T03:13:12.303Z,59.46
2022-11-09T03:15:44.619Z,59.56
2022-11-09T03:18:16.951Z,59.58
2022-11-09T03:20:49.299Z,59.57
2022-11-09T03:23:21.910Z,59.80
2022-11-09T03:25:54.444Z,59.72
2022-11-09T03:28:27.742Z,59.74
2022-11-09T03:31:00.328Z,59.71
2022-11-09T03:33:32.662Z,59.73
2022-11-09T03:36:05.580Z,59.75
2022-11-09T03:38:37.903Z,59.83
2022-11-09T03:41:10.562Z,59.77
2022-11-09T03:43:42.854Z,59.89
2022-11-09T03:46:15.234Z,59.88
2022-11-09T03:48:47.908Z,59.94
2022-11-09T03:51:20.481Z,60.00
2022-11-09T03:53:52.883Z,60.05
2022-11-09T03:56:25.205Z,60.11
2022-11-09T03:58:57.586Z,60.05
2022-11-09T04:01:29.953Z,60.10
2022-11-09T04:04:02.331Z,60.17
2022-11-09T04:06:34.826Z,60.20
2022-11-09T04:09:07.325Z,60.09
2022-11-09T04:11:39.655Z,60.17
2022-11-09T04:14:11.989Z,60.05
2022-11-09T04:16:44.352Z,60.21
2022-11-09T04:19:16.820Z,60.06
2022-11-09T04:21:49.186Z,60.18
2022-11-09T04:24:21.484Z,60.01
2022-11-09T04:26:53.847Z,60.15
2022-11-09T04:29:26.183Z,60.17
2022-11-09T04:31:58.488Z,60.16
2022-11-09T04:34:30.873Z,60.37
2022-11-09T04:37:03.272Z,60.29
2022-11-09T04:39:35.856Z,60.24
2022-11-09T04:42:08.346Z,60.25
2022-11-09T04:44:40.657Z,60.26
2022-11-09T04:47:12.960Z,60.44
2022-11-09T04:49:45.284Z,60.43
2022-11-09T04:52:17.648Z,60.46
2022-11-09T04:54:49.941Z,60.51
2022-11-09T04:57:22.775Z,60.51
2022-11-09T04:59:55.456Z,60.61
2022-11-09T05:02:27.771Z,60.64
2022-11-09T05:05:00.102Z,60.77
2022-11-09T05:07:32.427Z,60.73
2022-11-09T05:10:04.889Z,60.73
2022-11-09T05:12:38.210Z,60.81
2022-11-09T05:15:13.320Z,60.90
2022-11-09T05:17:45.809Z,60.90
2022-11-09T05:20:19.292Z,60.92
2022-11-09T05:23:09.390Z,60.92
2022-11-09T05:25:42.052Z,60.90
2022-11-09T05:28:14.666Z,60.95
2022-11-09T05:30:47.299Z,60.87
2022-11-09T05:33:19.922Z,60.96
2022-11-09T05:35:52.579Z,60.96
2022-11-09T05:38:24.903Z,60.99
2022-11-09T05:40:57.625Z,60.90
2022-11-09T05:43:29.988Z,60.97
2022-11-09T05:46:06.357Z,61.06
2022-11-09T05:48:39.685Z,60.99
2022-11-09T05:51:14.325Z,60.98
2022-11-09T05:53:47.218Z,61.02
2022-11-09T05:56:19.789Z,61.20
2022-11-09T05:58:52.135Z,61.07
2022-11-09T06:01:24.476Z,61.13
2022-11-09T06:03:57.878Z,61.23
2022-11-09T06:06:31.205Z,61.18
2022-11-09T06:09:03.596Z,61.17
2022-11-09T06:11:35.937Z,61.16
2022-11-09T06:14:08.369Z,61.34
2022-11-09T06:16:40.723Z,61.31
2022-11-09T06:19:13.299Z,61.27
2022-11-09T06:21:45.693Z,61.30
2022-11-09T06:24:18.069Z,61.11
2022-11-09T06:26:50.404Z,61.14
2022-11-09T06:29:22.820Z,60.91
2022-11-09T06:31:55.588Z,60.92
2022-11-09T06:34:27.932Z,60.74
2022-11-09T06:37:00.226Z,60.86
2022-11-09T06:39:32.739Z,60.60
2022-11-09T06:42:05.407Z,60.55
2022-11-09T06:44:37.871Z,60.21
2022-11-09T06:47:10.369Z,60.16
2022-11-09T06:49:42.994Z,60.10
2022-11-09T06:52:15.389Z,60.08
2022-11-09T06:54:47.854Z,60.42
2022-11-09T06:57:20.222Z,60.18
2022-11-09T06:59:52.547Z,59.70
2022-11-09T07:02:25.011Z,59.52
2022-11-09T07:04:57.536Z,59.39
2022-11-09T07:07:29.936Z,59.42
2022-11-09T07:10:02.410Z,59.41
2022-11-09T07:12:35.805Z,59.40
2022-11-09T07:15:10.257Z,59.54
2022-11-09T07:17:43.044Z,59.53
2022-11-09T07:20:16.858Z,59.57
2022-11-09T07:22:51.983Z,59.53
2022-11-09T07:25:25.201Z,59.44
2022-11-09T07:28:03.399Z,59.27
2022-11-09T07:30:36.747Z,59.25
2022-11-09T07:33:18.334Z,59.24
2022-11-09T07:35:50.773Z,59.36
2022-11-09T07:38:23.027Z,59.19
2022-11-09T07:40:55.631Z,59.03
2022-11-09T07:43:27.880Z,59.07
2022-11-09T07:46:00.153Z,58.85
2022-11-09T07:48:32.413Z,58.75
2022-11-09T07:51:05.523Z,58.55
2022-11-09T07:53:38.027Z,58.50
2022-11-09T07:56:10.687Z,58.41
2022-11-09T07:58:43.008Z,58.34
2022-11-09T08:01:15.592Z,58.24
2022-11-09T08:03:47.957Z,58.12
2022-11-09T08:06:20.366Z,57.85
2022-11-09T08:08:54.658Z,57.62
2022-11-09T08:11:27.711Z,57.47
2022-11-09T08:14:00.107Z,57.37
2022-11-09T08:16:37.596Z,57.31
2022-11-09T08:19:10.643Z,57.07
2022-11-09T08:21:42.815Z,56.85
2022-11-09T08:24:15.298Z,56.62
2022-11-09T08:26:47.612Z,56.53
2022-11-09T08:29:20.021Z,56.34
2022-11-09T08:31:53.938Z,56.04
2022-11-09T08:34:26.107Z,55.94
2022-11-09T08:37:00.486Z,55.65
2022-11-09T08:39:32.606Z,55.47
2022-11-09T08:42:04.918Z,55.19
2022-11-09T08:44:37.135Z,55.05
2022-11-09T08:47:09.974Z,54.94
2022-11-09T08:49:44.031Z,54.70
2022-11-09T08:52:17.098Z,54.72
2022-11-09T08:54:49.384Z,54.36
2022-11-09T08:57:22.279Z,54.02
2022-11-09T08:59:54.482Z,53.92
2022-11-09T09:02:26.784Z,53.89
2022-11-09T09:04:59.485Z,53.52
2022-11-09T09:07:31.695Z,53.25
2022-11-09T09:10:04.666Z,53.19
2022-11-09T09:12:37.278Z,52.75
2022-11-09T09:15:11.220Z,52.91
2022-11-09T09:17:43.483Z,52.59
2022-11-09T09:20:16.498Z,52.38
2022-11-09T09:22:48.994Z,52.24
2022-11-09T09:25:21.255Z,52.02
2022-11-09T09:27:53.701Z,51.89
2022-11-09T09:30:25.976Z,51.69
2022-11-09T09:33:02.219Z,51.33
2022-11-09T09:35:34.603Z,51.08
2022-11-09T09:38:07.188Z,50.81
2022-11-09T09:40:43.731Z,50.81
2022-11-09T09:43:26.567Z,50.53
2022-11-09T09:46:00.474Z,50.07
2022-11-09T09:48:39.910Z,49.95
2022-11-09T09:51:20.176Z,49.93
2022-11-09T09:54:00.942Z,49.75
2022-11-09T09:56:38.512Z,49.64
2022-11-09T09:59:21.680Z,49.37
2022-11-09T10:01:57.553Z,49.01
2022-11-09T10:04:37.235Z,48.98
2022-11-09T10:07:14.911Z,48.77
2022-11-09T10:10:01.866Z,48.73
2022-11-09T10:12:47.282Z,48.73
2022-11-09T10:15:30.986Z,48.37
2022-11-09T10:18:18.283Z,48.38
2022-11-09T10:21:08.606Z,48.33
2022-11-09T10:23:55.422Z,48.13
2022-11-09T10:26:38.335Z,47.86
2022-11-09T10:29:24.910Z,47.99
2022-11-09T10:31:59.959Z,47.68
2022-11-09T10:34:35.210Z,47.57
2022-11-09T10:37:14.116Z,47.40
2022-11-09T10:39:49.173Z,47.24
2022-11-09T10:42:21.612Z,46.91
2022-11-09T10:44:53.889Z,46.98
2022-11-09T10:47:26.768Z,46.94
2022-11-09T10:50:28.177Z,46.89
2022-11-09T10:53:18.247Z,46.78
2022-11-09T10:55:59.169Z,46.67
2022-11-09T10:58:35.886Z,46.63
2022-11-09T11:01:15.891Z,46.55
2022-11-09T11:03:51.025Z,46.38
2022-11-09T11:06:31.718Z,46.24
2022-11-09T11:09:21.453Z,46.23
2022-11-09T11:12:14.962Z,46.12
2022-11-09T11:14:47.765Z,46.05
2022-11-09T11:17:30.791Z,46.09
2022-11-09T11:20:27.251Z,46.20
2022-11-09T11:23:11.420Z,46.14
2022-11-09T11:26:04.947Z,45.87
2022-11-09T11:28:44.654Z,45.60
2022-11-09T11:31:19.590Z,45.70
2022-11-09T11:33:51.955Z,45.95
2022-11-09T11:36:34.516Z,45.96
2022-11-09T11:39:19.343Z,46.02
2022-11-09T11:42:16.635Z,45.93
2022-11-09T11:45:38.387Z,46.20
2022-11-09T11:48:10.516Z,46.38
2022-11-09T11:50:46.465Z,46.27
2022-11-09T11:53:38.232Z,46.10
2022-11-09T11:56:24.488Z,46.48
2022-11-09T11:59:14.254Z,46.45
2022-11-09T12:01:58.883Z,46.13
2022-11-09T12:04:45.985Z,46.21
2022-11-09T12:07:32.674Z,46.12
2022-11-09T12:10:22.346Z,46.21
2022-11-09T12:13:07.736Z,46.23
2022-11-09T12:15:53.512Z,46.29
2022-11-09T12:18:42.300Z,46.23
2022-11-09T12:21:24.778Z,45.91
2022-11-09T12:24:16.715Z,46.33
2022-11-09T12:27:25.991Z,46.17
2022-11-09T12:30:05.263Z,46.30
2022-11-09T12:32:45.761Z,46.24
2022-11-09T12:35:29.500Z,46.27
2022-11-09T12:38:11.892Z,46.43
2022-11-09T12:40:52.102Z,46.44
2022-11-09T12:43:28.516Z,46.58
2022-11-09T12:46:03.062Z,46.46
2022-11-09T12:48:36.619Z,46.75
2022-11-09T12:51:11.100Z,46.55
2022-11-09T12:53:43.336Z,46.67
2022-11-09T12:56:21.739Z,46.84
2022-11-09T12:58:54.033Z,46.82
2022-11-09T13:01:49.166Z,46.96
2022-11-09T13:04:23.881Z,47.00
2022-11-09T13:07:28.965Z,46.99
2022-11-09T13:10:03.499Z,47.07
2022-11-09T13:12:40.507Z,46.91
2022-11-09T13:15:35.684Z,47.12
2022-11-09T13:18:26.499Z,47.14
2022-11-09T13:21:18.725Z,47.23
2022-11-09T13:24:01.649Z,47.09
2022-11-09T13:26:58.099Z,47.10
2022-11-09T13:29:31.872Z,47.32
2022-11-09T13:32:22.064Z,47.27
2022-11-09T13:34:56.183Z,47.28
2022-11-09T13:37:55.587Z,47.39
2022-11-09T13:40:47.210Z,47.44
2022-11-09T13:43:30.303Z,47.43
2022-11-09T13:46:04.538Z,47.29
2022-11-09T13:48:43.915Z,47.49
2022-11-09T13:51:19.216Z,47.59
2022-11-09T13:54:00.530Z,47.64
2022-11-09T13:56:38.317Z,47.56
2022-11-09T13:59:17.543Z,47.64
2022-11-09T14:01:52.004Z,47.62
2022-11-09T14:04:30.118Z,47.69
2022-11-09T14:07:06.368Z,47.83
2022-11-09T14:09:52.552Z,47.80
2022-11-09T14:12:31.955Z,47.87
2022-11-09T14:15:25.683Z,47.96
2022-11-09T14:18:12.606Z,47.87
2022-11-09T14:20:55.211Z,48.01
2022-11-09T14:23:32.501Z,48.05
2022-11-09T14:26:17.243Z,48.16
2022-11-09T14:28:49.588Z,48.13
2022-11-09T14:31:29.251Z,48.14
2022-11-09T14:34:07.796Z,48.33
2022-11-09T14:36:43.103Z,48.40
2022-11-09T14:39:27.585Z,48.35
2022-11-09T14:41:59.999Z,48.49
2022-11-09T14:44:36.023Z,48.41
2022-11-09T14:47:15.743Z,48.51
2022-11-09T14:49:49.241Z,48.63
2022-11-09T14:52:28.844Z,48.69
2022-11-09T14:55:01.239Z,48.88
2022-11-09T14:57:33.821Z,48.84
2022-11-09T15:00:22.565Z,48.94
2022-11-09T15:02:54.963Z,48.90
2022-11-09T15:05:40.840Z,49.06
2022-11-09T15:08:21.819Z,49.16
2022-11-09T15:10:55.267Z,49.20
2022-11-09T15:13:35.066Z,49.26
2022-11-09T15:16:09.398Z,49.31
2022-11-09T15:18:50.256Z,49.43
2022-11-09T15:21:34.306Z,49.45
2022-11-09T15:24:15.636Z,49.47
2022-11-09T15:26:49.602Z,49.53
2022-11-09T15:29:43.484Z,49.68
2022-11-09T15:32:22.224Z,49.71
2022-11-09T15:35:00.807Z,49.74
2022-11-09T15:37:51.214Z,49.85
2022-11-09T15:40:26.267Z,49.95
2022-11-09T15:42:58.500Z,50.06
2022-11-09T15:45:30.750Z,50.16
2022-11-09T15:48:04.541Z,50.19
2022-11-09T15:50:37.335Z,50.25
2022-11-09T15:53:10.998Z,50.35
2022-11-09T15:55:43.388Z,50.38
2022-11-09T15:58:17.554Z,50.52
2022-11-09T16:00:50.356Z,50.60
2022-11-09T16:03:24.087Z,50.66
2022-11-09T16:05:59.512Z,50.70
2022-11-09T16:08:31.797Z,50.81
2022-11-09T16:11:07.993Z,50.95
2022-11-09T16:13:40.302Z,50.97
2022-11-09T16:16:14.937Z,50.95
2022-11-09T16:18:47.204Z,51.09
2022-11-09T16:21:20.250Z,51.17
2022-11-09T16:23:58.298Z,51.27
2022-11-09T16:26:33.496Z,51.19
2022-11-09T16:29:06.750Z,51.42
2022-11-09T16:31:51.534Z,51.51
2022-11-09T16:34:24.774Z,51.60
2022-11-09T16:36:57.661Z,51.73
2022-11-09T16:39:30.091Z,51.66
2022-11-09T16:42:06.919Z,51.74
2022-11-09T16:44:42.183Z,51.96
2022-11-09T16:47:18.437Z,51.88
2022-11-09T16:49:50.989Z,52.05
2022-11-09T16:52:23.598Z,52.15
2022-11-09T16:54:56.052Z,52.24
2022-11-09T16:57:28.506Z,52.32
2022-11-09T17:00:00.955Z,52.40
2022-11-09T17:02:33.238Z,52.39
2022-11-09T17:05:05.913Z,52.55
2022-11-09T17:07:42.776Z,52.53
2022-11-09T17:10:15.780Z,52.70
2022-11-09T17:12:48.006Z,52.73
2022-11-09T17:15:21.381Z,52.79
2022-11-09T17:17:53.716Z,52.81
2022-11-09T17:20:26.168Z,52.90
2022-11-09T17:22:58.488Z,52.91
2022-11-09T17:25:30.890Z,52.99
2022-11-09T17:28:03.153Z,53.18
2022-11-09T17:30:35.584Z,53.20
2022-11-09T17:33:07.912Z,53.32
2022-11-09T17:35:40.276Z,53.30
2022-11-09T17:38:12.544Z,53.37
2022-11-09T17:40:44.764Z,53.41
2022-11-09T17:43:17.594Z,53.34
2022-11-09T17:45:49.942Z,53.59
2022-11-09T17:48:22.696Z,53.63
2022-11-09T17:50:55.768Z,53.63
2022-11-09T17:53:28.543Z,53.77
2022-11-09T17:56:01.811Z,53.87
2022-11-09T17:58:34.147Z,53.95
2022-11-09T18:01:11.168Z,53.96
2022-11-09T18:03:43.948Z,53.91
2022-11-09T18:06:18.242Z,54.07
2022-11-09T18:09:19.323Z,54.06
2022-11-09T18:11:44.230Z,54.23
2022-11-09T18:14:17.273Z,54.16
2022-11-09T18:16:49.564Z,54.33
2022-11-09T18:19:21.831Z,54.38
2022-11-09T18:21:54.170Z,54.44
2022-11-09T18:24:26.569Z,54.34
2022-11-09T18:26:59.887Z,54.52
2022-11-09T18:29:32.338Z,54.64
2022-11-09T18:32:04.692Z,54.61
2022-11-09T18:34:36.934Z,54.75
2022-11-09T18:37:09.210Z,54.71
2022-11-09T18:39:41.465Z,54.69
2022-11-09T18:42:14.093Z,54.76
2022-11-09T18:44:46.414Z,54.97
2022-11-09T18:47:18.743Z,54.87
2022-11-09T18:49:51.470Z,55.08
2022-11-09T18:52:23.838Z,54.95
2022-11-09T18:54:57.084Z,55.14
2022-11-09T18:57:29.344Z,55.19
2022-11-09T19:00:01.637Z,55.34
2022-11-09T19:02:35.143Z,55.31
2022-11-09T19:05:09.050Z,55.28
2022-11-09T19:07:41.260Z,55.37
2022-11-09T19:10:13.791Z,55.54
2022-11-09T19:12:45.989Z,55.74
2022-11-09T19:15:18.353Z,55.86
2022-11-09T19:17:50.729Z,55.81
2022-11-09T19:20:23.270Z,55.93
2022-11-09T19:22:55.572Z,55.88
2022-11-09T19:25:27.947Z,56.05
2022-11-09T19:28:00.302Z,56.06
2022-11-09T19:30:32.635Z,56.00
2022-11-09T19:33:04.926Z,56.21
2022-11-09T19:35:37.245Z,56.32
2022-11-09T19:38:10.263Z,56.45
2022-11-09T19:40:42.461Z,56.48
2022-11-09T19:43:14.693Z,56.59
2022-11-09T19:45:47.040Z,56.78
2022-11-09T19:48:19.544Z,56.80
2022-11-09T19:50:53.652Z,56.79
2022-11-09T19:53:26.895Z,56.99
2022-11-09T19:56:04.531Z,56.96
2022-11-09T19:58:37.158Z,57.15
2022-11-09T20:01:11.917Z,57.09
2022-11-09T20:03:44.289Z,57.27
2022-11-09T20:06:16.535Z,57.27
2022-11-09T20:08:48.850Z,57.29
2022-11-09T20:11:40.184Z,57.35
2022-11-09T20:14:13.399Z,57.47
2022-11-09T20:16:48.556Z,57.50
2022-11-09T20:19:21.835Z,57.58
2022-11-09T20:21:54.029Z,57.54
2022-11-09T20:24:26.316Z,57.78
2022-11-09T20:26:58.578Z,57.84
2022-11-09T20:29:30.853Z,57.67
2022-11-09T20:32:03.255Z,57.60
2022-11-09T20:34:35.590Z,57.76
2022-11-09T20:37:08.107Z,57.97
2022-11-09T20:39:41.626Z,58.13
2022-11-09T20:42:14.290Z,58.11
2022-11-09T20:44:46.519Z,58.05
2022-11-09T20:47:35.459Z,58.20
2022-11-09T20:50:13.851Z,58.13
2022-11-09T20:52:46.262Z,58.36
2022-11-09T20:55:18.522Z,58.34
2022-11-09T20:57:50.863Z,58.36
2022-11-09T21:00:24.705Z,58.36
2022-11-09T21:02:57.059Z,58.57
2022-11-09T21:05:29.423Z,58.73
2022-11-09T21:08:01.920Z,58.76
2022-11-09T21:10:34.166Z,58.78
2022-11-09T21:13:06.412Z,58.77
2022-11-09T21:15:38.660Z,58.80
2022-11-09T21:18:11.450Z,58.79
2022-11-09T21:20:44.449Z,58.84
2022-11-09T21:23:34.355Z,58.97
2022-11-09T21:26:24.428Z,59.10
2022-11-09T21:29:14.333Z,59.04
2022-11-09T21:31:46.643Z,59.17
2022-11-09T21:34:18.914Z,59.22
2022-11-09T21:36:51.201Z,59.30
2022-11-09T21:39:23.858Z,59.17
2022-11-09T21:41:56.123Z,59.26
2022-11-09T21:44:31.408Z,59.18
2022-11-09T21:47:04.105Z,59.32
2022-11-09T21:49:36.330Z,59.30
2022-11-09T21:52:08.876Z,59.59
2022-11-09T21:54:41.061Z,59.69
2022-11-09T21:57:13.440Z,59.89
2022-11-09T21:59:46.010Z,59.64
2022-11-09T22:02:18.327Z,59.80
2022-11-09T22:04:50.589Z,59.86
2022-11-09T22:07:22.859Z,59.89
2022-11-09T22:10:11.480Z,59.92
2022-11-09T22:13:01.415Z,60.11
2022-11-09T22:15:51.067Z,60.18
2022-11-09T22:18:37.062Z,60.10
2022-11-09T22:21:09.443Z,60.20
2022-11-09T22:23:41.961Z,60.23
2022-11-09T22:26:14.232Z,60.25
2022-11-09T22:28:46.990Z,60.40
2022-11-09T22:31:19.298Z,60.27
2022-11-09T22:33:51.563Z,60.41
2022-11-09T22:36:24.505Z,60.42
2022-11-09T22:38:57.272Z,60.42
2022-11-09T22:41:29.566Z,60.42
2022-11-09T22:44:01.931Z,60.43
2022-11-09T22:46:34.232Z,60.46
2022-11-09T22:49:06.900Z,60.49
2022-11-09T22:51:39.699Z,60.34
2022-11-09T22:54:12.174Z,60.48
2022-11-09T22:56:44.440Z,60.65
2022-11-09T22:59:16.774Z,60.65
2022-11-09T23:01:49.774Z,60.67
2022-11-09T23:04:22.259Z,60.61
2022-11-09T23:06:54.565Z,60.64
2022-11-09T23:09:26.820Z,60.65
2022-11-09T23:11:59.034Z,60.59
2022-11-09T23:14:48.818Z,60.77
2022-11-09T23:17:38.731Z,60.72
2022-11-09T23:20:13.414Z,60.83
2022-11-09T23:22:45.896Z,60.76
2022-11-09T23:25:36.104Z,60.73
2022-11-09T23:28:08.464Z,60.85
2022-11-09T23:30:40.990Z,60.84
2022-11-09T23:33:13.671Z,60.96
2022-11-09T23:35:46.252Z,60.83
2022-11-09T23:38:18.454Z,60.95
2022-11-09T23:40:51.107Z,61.05
2022-11-09T23:43:23.738Z,61.09
2022-11-09T23:45:58.302Z,61.22
2022-11-09T23:48:30.830Z,61.18
2022-11-09T23:51:04.834Z,61.14
2022-11-09T23:53:37.814Z,61.22
2022-11-09T23:56:12.695Z,61.15
2022-11-09T23:58:47.936Z,61.27
